KORD/ORD METAR and TAF weather

Enter ICAO airport designator
Station Type Date Time Source
KORD METAR 2022/05/26 05:38 UTC NOAA

KORD 260538Z 21010KT 10SM SCT018 BKN075 OVC090 20/18 A2977 RMK AO2 PK WND 23028/0520 WSHFT 0512 RAB19E37 CB DSNT N MOV N P0002 T02000178


Station Type Date Time Source
KORD Decoded METAR 2022/05/26 05:38 UTC NOAA

CHICAGO O'HARE INTERNATIONAL, IL, United States (KORD) 41-59N 087-55W 200M
May 26, 2022 - 01:38 AM EDT / 2022.05.26 0538 UTC
Wind: from the SSW (210 degrees) at 12 MPH (10 KT):0
Visibility: 10 mile(s):0
Sky conditions: overcast
Weather: Cumulonimbus clouds observed
Precipitation last hour: 0.02 inches
Temperature: 68.0 F (20.0 C)
Dew Point: 64.0 F (17.8 C)
Relative Humidity: 87%
Pressure (altimeter): 29.77 in. Hg (1008 hPa)
ob: KORD 260538Z 21010KT 10SM SCT018 BKN075 OVC090 20/18 A2977 RMK AO2 PK WND 23028/0520 WSHFT 0512 RAB19E37 CB DSNT N MOV N P0002 T02000178
cycle: 5

Station Type Date Time Source
KORD TAF 2022/05/26 06:42 UTC NOAA

TAF KORD 260540Z 2606/2712 21011KT P6SM SCT018 BKN070
TEMPO 2606/2608 -SHRA
FM261500 19012KT P6SM VCSH SCT015 BKN025
FM261900 13009KT 6SM -SHRA SCT025 BKN050 PROB30 2621/2624 VRB10KT 4SM TSRA BKN025CB
FM270400 04008KT P6SM BKN015
FM270700 01011KT 4SM BR VCSH SCT005 OVC007

Example: see airport list